Time;durP1;ratioP1;P1;durP2;ratioP2;P2;SDS_P1;SDS_P2;PMS_P1;PMS_P2;Temp;Humidity;BMP_temperature;BMP_pressure;BME280_temperature;BME280_humidity;BME280_pressure;Samples;Min_cycle;Max_cycle;Signal;HPM_P1;HPM_P2
2022/08/09 00:01:14;;;;;;;;;7.75;7.00;;;;;24.72;28.48;101842.56;5004945;28;45391;-60
2022/08/09 00:03:39;;;;;;;;;10.00;10.00;;;;;24.71;28.34;101843.50;5006226;28;45328;-60
2022/08/09 00:06:05;;;;;;;;;6.25;5.75;;;;;24.66;28.36;101844.59;5001575;28;45422;-61
2022/08/09 00:08:30;;;;;;;;;9.75;9.75;;;;;24.61;28.51;101846.66;5001552;28;45361;-61
2022/08/09 00:10:56;;;;;;;;;9.75;9.75;;;;;24.59;28.47;101840.53;5001558;28;45417;-61
2022/08/09 00:13:22;;;;;;;;;8.50;8.50;;;;;24.55;28.49;101849.69;5001988;28;45498;-61
2022/08/09 00:15:47;;;;;;;;;12.25;10.50;;;;;24.50;28.75;101844.59;5001217;28;45563;-61
2022/08/09 00:18:13;;;;;;;;;8.75;7.75;;;;;24.48;28.74;101857.22;5001470;28;45306;-61
2022/08/09 00:20:39;;;;;;;;;8.75;8.75;;;;;24.45;28.57;101853.84;5001317;28;45411;-61
2022/08/09 00:23:04;;;;;;;;;8.25;8.25;;;;;24.42;28.78;101857.56;5000297;28;45275;-61
2022/08/09 00:25:29;;;;;;;;;11.00;9.75;;;;;24.38;28.49;101847.06;5001550;28;45285;-61
2022/08/09 00:27:55;;;;;;;;;8.50;8.00;;;;;24.32;28.70;101851.84;5001200;28;46190;-61
2022/08/09 00:30:21;;;;;;;;;8.00;8.00;;;;;24.33;28.82;101847.34;5001441;28;45211;-61
2022/08/09 00:32:46;;;;;;;;;8.50;7.75;;;;;24.29;28.91;101843.97;5001181;28;45375;-61
2022/08/09 00:35:12;;;;;;;;;8.00;7.50;;;;;24.25;28.89;101847.78;5001132;28;45439;-61
2022/08/09 00:37:38;;;;;;;;;10.00;10.00;;;;;24.20;28.95;101847.16;5000924;28;45374;-61
2022/08/09 00:40:04;;;;;;;;;9.75;9.75;;;;;24.16;29.50;101841.09;5001210;28;45319;-61
2022/08/09 00:42:29;;;;;;;;;7.75;7.75;;;;;24.15;29.34;101839.34;5001068;28;45391;-61
2022/08/09 00:44:54;;;;;;;;;12.50;10.00;;;;;24.15;29.29;101842.03;5001173;28;45487;-61
2022/08/09 00:47:22;;;;;;;;;9.00;9.00;;;;;24.10;29.13;101830.69;5000748;28;45450;-61
2022/08/09 00:49:48;;;;;;;;;8.00;8.00;;;;;24.08;29.36;101829.03;5004328;28;45236;-61
2022/08/09 00:52:14;;;;;;;;;6.75;5.00;;;;;24.06;29.30;101834.47;5018387;28;45317;-61
2022/08/09 00:54:39;;;;;;;;;9.00;8.50;;;;;24.04;29.50;101832.81;5001055;28;45552;-61
2022/08/09 00:57:05;;;;;;;;;8.75;8.00;;;;;23.98;29.69;101823.28;5000303;28;45242;-61
2022/08/09 00:59:31;;;;;;;;;8.00;8.00;;;;;23.93;29.64;101819.97;5001025;28;45254;-60
2022/08/09 01:02:00;;;;;;;;;11.00;10.00;;;;;23.93;29.64;101831.56;5008113;28;45491;-60
2022/08/09 01:04:45;;;;;;;;;9.50;7.75;;;;;23.91;29.75;101837.94;4999863;28;45396;-60
2022/08/09 01:07:16;;;;;;;;;8.00;7.25;;;;;23.87;29.81;101834.53;5000428;28;45305;-61
2022/08/09 01:09:52;;;;;;;;;7.75;7.50;;;;;23.80;29.99;101833.16;5000708;28;45448;-60
2022/08/09 01:12:31;;;;;;;;;8.25;6.75;;;;;23.80;30.27;101841.22;5000833;28;45329;-60
2022/08/09 01:15:02;;;;;;;;;8.25;8.25;;;;;23.76;30.19;101839.63;5000563;28;45230;-61
2022/08/09 01:17:42;;;;;;;;;7.25;7.25;;;;;23.72;30.24;101840.75;5015534;28;47059;-61
2022/08/09 01:20:16;;;;;;;;;9.50;9.00;;;;;23.65;30.31;101834.84;5000491;28;45450;-60
2022/08/09 01:23:06;;;;;;;;;6.75;6.50;;;;;23.62;30.27;101833.19;5000546;28;45249;-61
2022/08/09 01:25:50;;;;;;;;;7.50;6.50;;;;;23.61;30.36;101839.50;5000334;28;45372;-61
2022/08/09 01:28:17;;;;;;;;;10.25;7.75;;;;;23.59;30.53;101837.84;5000296;28;45423;-61
2022/08/09 01:30:44;;;;;;;;;7.75;7.75;;;;;23.54;30.50;101838.91;5015049;28;45433;-60
2022/08/09 01:33:13;;;;;;;;;7.00;7.00;;;;;23.53;30.77;101833.63;5000379;28;45325;-61
2022/08/09 01:35:46;;;;;;;;;6.75;6.75;;;;;23.48;30.67;101836.59;4999997;28;45187;-61
2022/08/09 01:38:16;;;;;;;;;7.25;5.50;;;;;23.46;30.85;101842.94;4999126;28;45664;-61
2022/08/09 01:40:53;;;;;;;;;5.00;5.00;;;;;23.40;30.63;101837.91;5000063;28;45319;-61
2022/08/09 01:43:19;;;;;;;;;7.50;7.00;;;;;23.41;31.14;101839.63;5000298;28;45403;-61
2022/08/09 01:45:46;;;;;;;;;5.25;5.25;;;;;23.39;30.87;101831.66;4999903;28;45327;-61
2022/08/09 01:48:13;;;;;;;;;7.00;5.75;;;;;23.33;31.05;101832.88;5000160;28;46281;-61
2022/08/09 01:50:41;;;;;;;;;5.75;5.75;;;;;23.32;30.95;101836.50;5009049;28;45194;-61
2022/08/09 01:53:08;;;;;;;;;7.00;7.00;;;;;23.32;30.88;101833.81;5011224;28;45337;-61
2022/08/09 01:55:35;;;;;;;;;9.00;7.25;;;;;23.30;31.14;101827.66;4999992;28;45333;-61
2022/08/09 01:58:03;;;;;;;;;5.75;5.75;;;;;23.26;31.22;101828.75;5000051;28;46587;-61
2022/08/09 02:00:30;;;;;;;;;9.50;8.00;;;;;23.24;31.43;101832.47;4999670;28;45236;-61
2022/08/09 02:02:56;;;;;;;;;8.75;8.75;;;;;23.23;31.40;101834.25;5007444;28;45239;-61
2022/08/09 02:05:23;;;;;;;;;7.25;5.75;;;;;23.20;31.28;101837.09;4999543;28;45460;-61
2022/08/09 02:07:56;;;;;;;;;7.25;6.00;;;;;23.18;31.44;101833.63;4999893;28;45416;-61
2022/08/09 02:10:25;;;;;;;;;6.00;6.00;;;;;23.15;31.45;101823.91;4999773;28;45215;-61
2022/08/09 02:12:54;;;;;;;;;9.00;7.00;;;;;23.13;31.51;101830.28;5015216;28;45388;-61
2022/08/09 02:15:23;;;;;;;;;6.75;6.75;;;;;23.11;31.42;101826.81;5000810;28;45254;-61
2022/08/09 02:17:50;;;;;;;;;6.25;6.25;;;;;23.08;31.50;101827.84;5001840;28;47384;-61
2022/08/09 02:20:15;;;;;;;;;5.50;5.50;;;;;23.02;31.35;101822.78;5002943;28;45455;-61
2022/08/09 02:22:49;;;;;;;;;6.50;6.50;;;;;23.01;31.99;101832.63;5018528;28;45342;-61
2022/08/09 02:25:21;;;;;;;;;6.00;6.00;;;;;22.99;31.63;101825.59;5003420;28;45304;-61
2022/08/09 02:27:56;;;;;;;;;6.50;6.50;;;;;22.94;31.90;101822.28;5003039;28;46677;-61
2022/08/09 02:30:22;;;;;;;;;6.75;6.75;;;;;22.90;32.16;101826.94;5003313;28;45252;-61
2022/08/09 02:32:49;;;;;;;;;7.50;6.75;;;;;22.87;31.99;101827.94;5003041;28;45284;-61
2022/08/09 02:35:21;;;;;;;;;9.00;7.00;;;;;22.81;32.08;101830.91;5002792;28;45320;-61
2022/08/09 02:37:51;;;;;;;;;5.00;5.00;;;;;22.82;31.87;101823.78;5003026;28;45461;-62
2022/08/09 02:40:19;;;;;;;;;7.75;7.75;;;;;22.78;32.30;101824.84;5018302;28;45263;-62
2022/08/09 02:42:48;;;;;;;;;6.75;5.50;;;;;22.78;31.90;101830.19;5002874;28;45382;-61
2022/08/09 02:45:20;;;;;;;;;7.00;5.75;;;;;22.73;32.72;101825.09;5002964;28;45416;-61
2022/08/09 02:47:48;;;;;;;;;9.00;7.75;;;;;22.73;32.23;101833.13;5002592;28;45267;-61
2022/08/09 02:50:23;;;;;;;;;5.75;5.25;;;;;22.70;32.45;101822.53;5024635;28;45465;-61
2022/08/09 02:52:56;;;;;;;;;5.50;4.50;;;;;22.64;32.21;101826.41;5016489;28;45421;-61
2022/08/09 02:55:24;;;;;;;;;7.25;7.25;;;;;22.61;32.56;101823.84;5001377;28;46094;-61
2022/08/09 02:57:53;;;;;;;;;7.25;7.25;;;;;22.60;32.96;101822.09;5001391;28;47815;-60
2022/08/09 03:00:18;;;;;;;;;4.75;4.75;;;;;22.57;33.03;101822.28;5002630;28;45250;-58
2022/08/09 03:02:49;;;;;;;;;6.50;6.00;;;;;22.52;32.78;101814.44;5010382;28;45372;-60
2022/08/09 03:05:16;;;;;;;;;7.00;7.00;;;;;22.48;32.55;101810.19;5002455;28;45530;-61
2022/08/09 03:07:42;;;;;;;;;7.00;7.00;;;;;22.48;32.75;101814.69;5002637;28;45948;-61
2022/08/09 03:10:08;;;;;;;;;5.00;5.00;;;;;22.49;32.85;101819.06;5002389;28;45289;-61
2022/08/09 03:12:37;;;;;;;;;6.00;6.00;;;;;22.45;32.92;101821.06;5002642;28;45226;-61
2022/08/09 03:15:05;;;;;;;;;5.00;5.00;;;;;22.45;32.75;101822.84;5001006;28;45412;-61
2022/08/09 03:17:33;;;;;;;;;5.00;5.00;;;;;22.40;32.77;101818.59;5001062;28;48312;-61
2022/08/09 03:20:00;;;;;;;;;7.50;6.00;;;;;22.38;33.06;101823.13;5002314;28;45226;-61
2022/08/09 03:22:28;;;;;;;;;6.00;6.00;;;;;22.39;33.12;101834.72;5002314;28;45340;-61
2022/08/09 03:24:54;;;;;;;;;5.25;5.25;;;;;22.37;33.07;101836.59;5002110;28;45498;-61
2022/08/09 03:27:20;;;;;;;;;6.25;5.25;;;;;22.33;32.94;101827.81;5001614;28;45393;-61
2022/08/09 03:29:46;;;;;;;;;6.00;6.00;;;;;22.28;32.87;101821.81;5002261;28;45324;-61
2022/08/09 03:32:13;;;;;;;;;6.50;5.50;;;;;22.31;33.13;101828.81;5017407;28;45355;-61
2022/08/09 03:34:38;;;;;;;;;6.50;6.50;;;;;22.28;33.49;101832.50;5001981;28;45244;-61
2022/08/09 03:37:04;;;;;;;;;6.75;6.50;;;;;22.26;33.27;101837.06;5001397;28;45366;-61
2022/08/09 03:39:29;;;;;;;;;6.00;6.00;;;;;22.22;33.74;101833.66;5002054;28;45184;-61
2022/08/09 03:41:55;;;;;;;;;7.00;7.00;;;;;22.20;33.13;101842.69;5017404;28;45333;-61
2022/08/09 03:44:21;;;;;;;;;10.50;8.75;;;;;22.16;33.20;101836.63;5002014;28;45222;-61
2022/08/09 03:46:47;;;;;;;;;8.50;7.00;;;;;22.14;33.56;101840.28;5002054;28;46136;-61
2022/08/09 03:49:13;;;;;;;;;5.25;5.25;;;;;22.13;33.47;101836.75;5001771;28;45459;-61
2022/08/09 03:51:42;;;;;;;;;7.00;6.75;;;;;22.10;33.75;101838.69;5019987;28;45401;-61
2022/08/09 03:54:09;;;;;;;;;7.00;7.00;;;;;22.07;33.72;101829.88;5004693;28;45264;-61
2022/08/09 03:56:34;;;;;;;;;9.25;7.25;;;;;22.03;34.02;101828.28;5001801;28;46519;-61
2022/08/09 03:59:00;;;;;;;;;7.00;7.00;;;;;22.02;34.07;101829.19;5001603;28;45311;-61
2022/08/09 04:01:26;;;;;;;;;7.25;7.25;;;;;22.01;33.57;101835.53;5006864;28;45349;-61
2022/08/09 04:03:53;;;;;;;;;7.25;7.25;;;;;21.92;34.17;101835.91;5004320;28;45502;-61
2022/08/09 04:06:19;;;;;;;;;7.50;7.00;;;;;21.95;33.50;101832.22;5001254;28;46293;-61
2022/08/09 04:08:44;;;;;;;;;7.00;7.00;;;;;21.89;34.12;101836.06;5001446;28;45269;-61
2022/08/09 04:11:10;;;;;;;;;7.00;6.25;;;;;21.86;34.04;101834.41;5001796;28;45483;-61
2022/08/09 04:13:35;;;;;;;;;7.75;7.75;;;;;21.87;34.40;101835.25;5001564;28;45343;-61
2022/08/09 04:16:01;;;;;;;;;7.25;6.50;;;;;21.85;33.89;101834.47;5001379;28;46071;-61
2022/08/09 04:18:26;;;;;;;;;8.50;7.25;;;;;21.83;33.91;101836.34;5000105;28;45340;-61
2022/08/09 04:20:51;;;;;;;;;6.75;6.00;;;;;21.80;33.92;101839.13;5000069;28;45461;-61
2022/08/09 04:23:17;;;;;;;;;7.50;7.50;;;;;21.82;34.28;101837.28;5001544;28;45565;-61
2022/08/09 04:25:44;;;;;;;;;11.25;11.00;;;;;21.77;34.47;101831.25;5001419;28;46203;-61
2022/08/09 04:28:10;;;;;;;;;6.25;6.25;;;;;21.74;34.34;101827.75;5001211;28;45210;-61
2022/08/09 04:30:35;;;;;;;;;9.75;8.75;;;;;21.72;34.66;101837.69;5016519;28;45314;-61
2022/08/09 04:33:00;;;;;;;;;5.50;5.50;;;;;21.70;34.71;101839.53;4999953;28;45676;-60
2022/08/09 04:35:26;;;;;;;;;8.25;8.25;;;;;21.68;34.59;101845.91;4999700;28;47208;-60
2022/08/09 04:37:51;;;;;;;;;8.50;8.00;;;;;21.62;34.37;101839.00;5001064;28;45257;-60
2022/08/09 04:40:17;;;;;;;;;8.25;7.00;;;;;21.64;34.43;101850.50;5000488;28;45468;-60
2022/08/09 04:42:42;;;;;;;;;8.75;7.25;;;;;21.62;34.77;101854.19;5001015;28;45463;-60
2022/08/09 04:45:08;;;;;;;;;6.50;5.00;;;;;21.59;34.84;101857.88;5001070;28;46270;-60
2022/08/09 04:47:34;;;;;;;;;7.75;6.25;;;;;21.58;34.40;101861.47;5000950;28;45349;-60
2022/08/09 04:49:59;;;;;;;;;8.50;8.00;;;;;21.57;34.39;101863.28;5005872;28;45428;-59
2022/08/09 04:52:26;;;;;;;;;8.00;8.00;;;;;21.57;35.00;101865.06;5016654;28;45598;-59
2022/08/09 04:54:52;;;;;;;;;8.25;7.25;;;;;21.50;35.04;101855.56;5001016;28;47023;-60
2022/08/09 04:57:19;;;;;;;;;8.25;8.00;;;;;21.53;34.71;101860.78;5000689;28;45318;-59
2022/08/09 04:59:54;;;;;;;;;7.25;7.25;;;;;21.53;34.88;101866.13;5094210;27;45252;-60
2022/08/09 05:02:20;;;;;;;;;7.00;5.00;;;;;21.52;35.02;101864.38;5071241;28;45382;-60
2022/08/09 05:04:45;;;;;;;;;7.50;6.50;;;;;21.52;35.29;101861.69;5056721;28;45418;-60
2022/08/09 05:07:11;;;;;;;;;11.00;9.00;;;;;21.51;35.36;101868.88;5070705;28;45317;-59
2022/08/09 05:09:36;;;;;;;;;5.75;5.75;;;;;21.49;34.68;101867.19;5056333;28;51949;-59
2022/08/09 05:12:02;;;;;;;;;8.75;8.75;;;;;21.49;35.20;101865.38;5056462;28;45371;-59
2022/08/09 05:14:30;;;;;;;;;9.75;9.75;;;;;21.47;35.31;101871.72;5056959;28;45235;-59
2022/08/09 05:16:58;;;;;;;;;9.00;8.00;;;;;21.47;35.32;101866.38;5056381;28;45431;-59
2022/08/09 05:19:23;;;;;;;;;8.00;8.00;;;;;21.45;35.28;101869.13;5064093;28;46147;-59
2022/08/09 05:21:48;;;;;;;;;9.25;9.00;;;;;21.42;35.17;101875.47;5054681;28;45228;-59
2022/08/09 05:24:14;;;;;;;;;7.00;7.00;;;;;21.41;35.75;101873.72;5067573;28;45330;-59
2022/08/09 05:26:40;;;;;;;;;7.00;6.50;;;;;21.42;35.41;101872.78;5056200;28;45287;-59
2022/08/09 05:29:05;;;;;;;;;9.00;7.00;;;;;21.41;35.58;101881.75;5068202;28;46855;-59
2022/08/09 05:31:31;;;;;;;;;8.00;7.00;;;;;21.38;35.40;101879.22;5076263;27;45359;-59
2022/08/09 05:33:56;;;;;;;;;6.75;6.75;;;;;21.40;35.16;101877.31;5076785;27;45458;-59
2022/08/09 05:36:21;;;;;;;;;8.50;6.25;;;;;21.40;35.89;101876.47;5076171;27;45212;-59
2022/08/09 05:38:47;;;;;;;;;11.50;10.50;;;;;21.38;35.88;101879.22;5076363;27;46189;-58
2022/08/09 05:41:12;;;;;;;;;8.00;7.00;;;;;21.38;35.65;101875.66;5076262;27;45271;-57
2022/08/09 05:43:37;;;;;;;;;9.25;7.25;;;;;21.38;35.48;101889.03;5054988;28;45251;-58
2022/08/09 05:46:03;;;;;;;;;9.25;7.50;;;;;21.37;35.44;101884.59;5074827;28;45213;-57
2022/08/09 05:48:28;;;;;;;;;8.00;7.00;;;;;21.35;35.42;101883.81;5063101;28;47086;-57
2022/08/09 05:50:54;;;;;;;;;6.25;6.25;;;;;21.37;35.57;101889.94;5058173;28;45328;-57
2022/08/09 05:53:20;;;;;;;;;6.25;6.25;;;;;21.34;35.98;101887.41;5065755;28;45331;-57
2022/08/09 05:55:45;;;;;;;;;7.75;7.75;;;;;21.36;36.12;101883.75;5055840;28;45269;-57
2022/08/09 05:58:11;;;;;;;;;7.00;7.00;;;;;21.36;36.10;101885.56;5061917;28;45321;-57
2022/08/09 06:00:36;;;;;;;;;7.75;6.50;;;;;21.36;36.04;101894.44;5075931;28;45328;-58
2022/08/09 06:03:03;;;;;;;;;12.50;12.00;;;;;21.37;35.66;101893.50;5083955;27;45487;-58
2022/08/09 06:05:31;;;;;;;;;7.75;7.00;;;;;21.35;35.65;101887.34;5088539;27;45406;-57
2022/08/09 06:07:56;;;;;;;;;9.00;7.00;;;;;21.36;36.09;101896.25;5075791;27;47199;-57
2022/08/09 06:10:36;;;;;;;;;6.25;6.25;;;;;21.37;36.06;101893.50;5067231;28;45158;-57
2022/08/09 06:13:09;;;;;;;;;6.25;6.00;;;;;21.39;35.78;101904.13;5062665;28;45244;-57
2022/08/09 06:15:35;;;;;;;;;9.75;7.00;;;;;21.40;35.99;101901.38;5062116;28;45461;-58
2022/08/09 06:18:00;;;;;;;;;7.75;7.75;;;;;21.41;35.93;101899.59;5062054;28;46049;-57
2022/08/09 06:20:26;;;;;;;;;8.00;8.00;;;;;21.42;36.25;101907.56;5062057;28;45324;-57
2022/08/09 06:22:51;;;;;;;;;7.25;7.25;;;;;21.42;36.32;101904.00;5062469;28;45457;-57
2022/08/09 06:25:17;;;;;;;;;10.50;8.00;;;;;21.46;36.33;101907.41;5060696;28;45582;-57
2022/08/09 06:27:42;;;;;;;;;7.00;5.00;;;;;21.48;36.42;101913.56;5061975;28;46068;-59
2022/08/09 06:30:08;;;;;;;;;7.50;6.00;;;;;21.49;36.55;101908.16;5062332;28;45299;-59
2022/08/09 06:32:34;;;;;;;;;6.75;6.75;;;;;21.51;36.06;101900.94;5062038;28;45405;-59
2022/08/09 06:34:59;;;;;;;;;7.00;7.00;;;;;21.50;36.48;101909.91;5061736;28;45513;-58
2022/08/09 06:37:24;;;;;;;;;5.25;5.25;;;;;21.54;36.22;101908.81;5061983;28;46151;-58
2022/08/09 06:39:50;;;;;;;;;7.00;7.00;;;;;21.55;36.30;101907.94;5060811;28;45228;-58
2022/08/09 06:42:17;;;;;;;;;7.75;6.75;;;;;21.57;36.30;101914.09;5062123;28;45172;-58
2022/08/09 06:44:42;;;;;;;;;6.25;6.25;;;;;21.57;36.26;101910.53;5061842;28;45239;-58
2022/08/09 06:47:08;;;;;;;;;7.75;7.00;;;;;21.62;36.51;101913.03;5061504;28;45308;-58
2022/08/09 06:49:33;;;;;;;;;7.00;6.75;;;;;21.64;35.95;101912.03;5061680;28;45238;-58
2022/08/09 06:51:59;;;;;;;;;6.00;6.00;;;;;21.65;36.16;101916.44;5074579;28;45741;-58
2022/08/09 06:54:24;;;;;;;;;8.75;7.50;;;;;21.69;36.42;101917.19;5082005;27;45964;-58
2022/08/09 06:56:49;;;;;;;;;8.75;8.75;;;;;21.68;36.47;101921.66;5081760;28;45402;-58
2022/08/09 06:59:14;;;;;;;;;7.25;7.25;;;;;21.71;36.63;101918.88;5081702;28;45322;-58
2022/08/09 07:01:40;;;;;;;;;7.25;6.00;;;;;21.75;36.35;101920.47;5081778;28;45339;-58
2022/08/09 07:04:05;;;;;;;;;8.00;8.00;;;;;21.79;36.20;101925.69;5062147;27;45457;-58
2022/08/09 07:06:30;;;;;;;;;7.25;7.00;;;;;21.82;36.92;101923.72;5061046;28;46215;-58
2022/08/09 07:08:56;;;;;;;;;7.00;6.00;;;;;21.84;36.61;101927.22;5061193;28;45411;-58
2022/08/09 07:11:21;;;;;;;;;7.50;6.75;;;;;21.88;36.61;101923.47;5061497;28;45279;-58
2022/08/09 07:13:46;;;;;;;;;8.25;7.50;;;;;21.92;36.62;101921.53;5061417;28;45311;-57
2022/08/09 07:16:12;;;;;;;;;8.25;7.25;;;;;21.96;36.57;101930.31;5061122;28;45405;-57
2022/08/09 07:18:37;;;;;;;;;8.25;8.25;;;;;21.99;36.75;101924.84;5061106;28;45552;-57
2022/08/09 07:21:02;;;;;;;;;8.00;8.00;;;;;22.03;36.58;101937.13;5067813;28;45311;-57
2022/08/09 07:23:28;;;;;;;;;8.50;8.00;;;;;22.05;36.24;101936.13;5060646;28;45304;-57
2022/08/09 07:25:53;;;;;;;;;7.50;7.50;;;;;22.08;36.69;101932.44;5068556;28;46373;-58
2022/08/09 07:28:19;;;;;;;;;7.50;6.75;;;;;22.12;36.32;101927.84;5060615;28;45348;-57
2022/08/09 07:30:45;;;;;;;;;9.00;7.50;;;;;22.16;36.58;101935.66;5061116;28;45362;-58
2022/08/09 07:33:10;;;;;;;;;5.50;5.50;;;;;22.22;36.41;101945.22;5061148;28;45433;-57
2022/08/09 07:35:35;;;;;;;;;8.25;7.00;;;;;22.26;36.59;101941.47;5059396;28;45438;-58
2022/08/09 07:38:01;;;;;;;;;8.50;7.00;;;;;22.32;36.58;101943.88;5061099;28;45419;-57
2022/08/09 07:40:27;;;;;;;;;7.50;7.50;;;;;22.36;36.51;101936.56;5061100;28;45201;-57
2022/08/09 07:42:57;;;;;;;;;8.00;8.00;;;;;22.42;36.18;101949.72;5060677;28;45252;-56
2022/08/09 07:45:25;;;;;;;;;8.75;8.75;;;;;22.48;36.56;101948.59;5060869;28;46302;-57
2022/08/09 07:47:52;;;;;;;;;7.75;7.75;;;;;22.50;36.57;101933.28;5060437;28;45232;-57
2022/08/09 07:50:19;;;;;;;;;7.75;7.50;;;;;22.58;36.02;101949.00;5060648;28;45297;-57
2022/08/09 07:52:45;;;;;;;;;8.00;8.00;;;;;22.62;36.36;101942.59;5079974;28;45282;-61
2022/08/09 07:55:10;;;;;;;;;8.25;8.00;;;;;22.67;36.40;101937.88;5080815;28;46154;-57
2022/08/09 07:57:35;;;;;;;;;8.25;8.25;;;;;22.72;36.31;101941.22;5080529;28;45248;-57
2022/08/09 08:00:01;;;;;;;;;9.00;6.50;;;;;22.76;36.14;101933.91;5081049;28;45477;-56
2022/08/09 08:02:26;;;;;;;;;10.75;10.75;;;;;22.84;36.38;101934.41;5075278;28;45354;-57
2022/08/09 08:04:51;;;;;;;;;6.75;6.75;;;;;22.88;36.22;101938.69;5060224;28;56950;-58
2022/08/09 08:07:17;;;;;;;;;6.50;6.50;;;;;22.93;36.29;101934.00;5060200;28;48074;-59
2022/08/09 08:09:42;;;;;;;;;6.50;6.00;;;;;22.99;35.84;101941.75;5060791;28;45422;-59
2022/08/09 08:12:07;;;;;;;;;7.00;7.00;;;;;23.05;36.14;101940.56;5060258;28;49372;-57
2022/08/09 08:14:32;;;;;;;;;8.50;8.50;;;;;23.10;36.18;101943.88;5067722;28;47248;-56
2022/08/09 08:16:58;;;;;;;;;8.00;7.25;;;;;23.20;36.19;101944.34;5060301;28;45311;-57
2022/08/09 08:19:23;;;;;;;;;10.50;9.50;;;;;23.24;35.85;101945.94;5060722;28;45417;-59
2022/08/09 08:21:50;;;;;;;;;8.25;8.25;;;;;23.31;35.94;101942.00;5060040;28;45597;-57
2022/08/09 08:24:15;;;;;;;;;8.00;8.00;;;;;23.37;36.30;101941.72;5060524;28;45263;-57
2022/08/09 08:26:41;;;;;;;;;7.25;6.50;;;;;23.39;36.22;101938.09;5060154;28;45283;-58
2022/08/09 08:29:06;;;;;;;;;8.00;8.00;;;;;23.44;35.97;101939.59;5060465;28;45235;-57
2022/08/09 08:31:32;;;;;;;;;8.00;8.00;;;;;23.54;35.82;101951.59;5060031;28;45207;-58
2022/08/09 08:33:57;;;;;;;;;12.25;10.00;;;;;23.60;35.83;101947.75;5059700;28;45366;-57
2022/08/09 08:36:24;;;;;;;;;9.75;9.25;;;;;23.65;35.99;101943.00;5059799;28;45418;-58
2022/08/09 08:38:49;;;;;;;;;9.00;9.00;;;;;23.73;35.80;101953.34;5060449;28;45163;-58
2022/08/09 08:41:15;;;;;;;;;8.50;7.25;;;;;23.79;35.67;101946.81;5073333;28;45360;-58
2022/08/09 08:43:41;;;;;;;;;9.00;8.00;;;;;23.86;35.72;101949.09;5060026;28;45334;-58
2022/08/09 08:46:11;;;;;;;;;9.00;9.00;;;;;23.91;35.64;101946.22;5059658;28;45328;-58
2022/08/09 08:48:38;;;;;;;;;8.50;8.50;;;;;23.99;35.37;101944.00;5059911;28;45161;-58
2022/08/09 08:51:05;;;;;;;;;9.00;9.00;;;;;24.06;35.47;101946.34;5064717;28;45494;-58
2022/08/09 08:53:30;;;;;;;;;9.00;9.00;;;;;24.10;35.20;101940.75;5080206;28;45484;-58
2022/08/09 08:55:56;;;;;;;;;9.50;9.50;;;;;24.19;35.21;101934.03;5079873;28;45445;-58
2022/08/09 08:58:22;;;;;;;;;15.00;15.00;;;;;24.25;35.23;101944.44;5080192;28;45251;-57
2022/08/09 09:00:48;;;;;;;;;9.00;9.00;;;;;24.31;35.73;101929.81;5079773;28;45464;-57
2022/08/09 09:03:14;;;;;;;;;13.00;13.00;;;;;24.40;35.30;101928.44;5067084;28;46266;-58
2022/08/09 09:05:40;;;;;;;;;10.50;7.50;;;;;24.47;35.43;101932.53;5074081;28;45710;-57
2022/08/09 09:08:08;;;;;;;;;10.75;10.75;;;;;24.53;35.37;101928.63;5059803;28;45305;-57
2022/08/09 09:10:34;;;;;;;;;11.00;8.00;;;;;24.62;35.47;101936.22;5059439;28;45392;-57
2022/08/09 09:13:01;;;;;;;;;11.50;10.00;;;;;24.70;35.02;101934.00;5059465;28;46312;-58
2022/08/09 09:15:27;;;;;;;;;7.50;7.00;;;;;24.78;34.84;101936.25;5059434;28;45323;-58
2022/08/09 09:17:52;;;;;;;;;10.75;9.00;;;;;24.85;35.25;101937.66;5059630;28;45248;-58
2022/08/09 09:20:18;;;;;;;;;7.00;7.00;;;;;24.95;34.94;101936.16;5074525;28;45320;-57
2022/08/09 09:22:54;;;;;;;;;9.25;7.25;;;;;25.06;34.62;101940.97;5059431;28;46131;-58
2022/08/09 09:25:42;;;;;;;;;9.50;8.50;;;;;25.16;34.74;101941.31;5059662;28;45367;-57
2022/08/09 09:28:10;;;;;;;;;8.50;7.50;;;;;25.25;34.79;101938.06;5058322;28;45263;-58
2022/08/09 09:30:54;;;;;;;;;9.00;7.50;;;;;25.36;34.38;101941.97;5059426;28;45450;-58
2022/08/09 09:33:30;;;;;;;;;10.00;9.00;;;;;25.47;34.34;101934.16;5059526;28;45537;-58
2022/08/09 09:35:59;;;;;;;;;9.00;7.75;;;;;25.56;34.53;101933.63;5059011;28;45288;-58
2022/08/09 09:38:45;;;;;;;;;10.50;8.00;;;;;25.68;34.62;101933.88;5059706;28;45314;-58
2022/08/09 09:41:26;;;;;;;;;6.75;6.75;;;;;25.77;34.63;101925.22;5059203;28;45157;-58
2022/08/09 09:43:52;;;;;;;;;6.75;5.25;;;;;25.87;34.31;101921.03;5059256;28;45443;-58
2022/08/09 09:46:18;;;;;;;;;9.25;8.25;;;;;26.00;33.91;101933.75;5062114;28;45408;-58
2022/08/09 09:49:04;;;;;;;;;6.50;6.50;;;;;26.13;34.05;101931.22;5062835;28;45331;-57
2022/08/09 09:51:31;;;;;;;;;6.00;5.00;;;;;26.24;34.47;101928.72;5071360;28;45282;-57
2022/08/09 09:54:02;;;;;;;;;5.75;5.25;;;;;26.37;34.31;101929.69;5082838;27;45342;-58
2022/08/09 09:56:33;;;;;;;;;7.00;7.00;;;;;26.50;33.76;101923.53;5082963;28;45445;-58
2022/08/09 09:58:59;;;;;;;;;8.00;7.75;;;;;26.63;33.54;101928.97;5082834;28;45328;-58
2022/08/09 10:01:24;;;;;;;;;5.75;5.75;;;;;26.74;33.99;101915.72;5082660;28;45478;-58
2022/08/09 10:03:52;;;;;;;;;8.25;8.25;;;;;26.88;33.35;101917.50;5065342;27;45544;-58
2022/08/09 10:06:18;;;;;;;;;11.00;7.50;;;;;26.99;32.99;101919.53;5062313;28;45394;-58
2022/08/09 10:08:46;;;;;;;;;9.75;8.00;;;;;27.12;33.26;101917.75;5061137;28;45339;-58
2022/08/09 10:11:25;;;;;;;;;9.75;9.75;;;;;27.25;33.57;101915.97;5069000;28;45385;-57
2022/08/09 10:13:52;;;;;;;;;7.25;7.25;;;;;27.41;33.08;101915.00;5062332;28;46190;-58
2022/08/09 10:16:31;;;;;;;;;6.25;6.25;;;;;27.57;32.90;101907.56;5062119;28;45319;-58
2022/08/09 10:19:00;;;;;;;;;7.25;7.00;;;;;27.72;32.91;101904.78;5069430;28;45365;-58
2022/08/09 10:21:26;;;;;;;;;5.75;5.75;;;;;27.88;32.78;101910.00;5082193;28;45748;-58
2022/08/09 10:23:53;;;;;;;;;8.00;8.00;;;;;28.04;32.64;101896.31;5082360;28;46202;-58
2022/08/09 10:26:20;;;;;;;;;8.75;7.25;;;;;28.20;32.72;101907.75;5082651;28;45368;-58
2022/08/09 10:28:46;;;;;;;;;7.00;7.00;;;;;28.37;32.74;101890.31;5082567;28;45243;-58
2022/08/09 10:31:12;;;;;;;;;8.75;7.00;;;;;28.56;32.50;101897.13;5082202;28;45446;-58
2022/08/09 10:33:39;;;;;;;;;7.25;7.00;;;;;28.76;31.94;101895.69;5082554;28;45441;-58
2022/08/09 10:36:06;;;;;;;;;6.50;6.50;;;;;28.96;32.36;101894.22;5081907;28;45310;-59
2022/08/09 10:38:31;;;;;;;;;8.50;8.50;;;;;29.17;32.03;101897.16;5082448;28;45224;-59
2022/08/09 10:40:57;;;;;;;;;9.50;8.00;;;;;29.44;32.09;101898.75;5082239;28;45394;-59
2022/08/09 10:43:23;;;;;;;;;9.25;8.00;;;;;29.80;32.14;101896.91;5082170;28;45454;-59
2022/08/09 10:45:49;;;;;;;;;9.25;9.25;;;;;30.26;32.23;101911.38;5080753;28;45405;-59
2022/08/09 10:48:35;;;;;;;;;7.50;7.50;;;;;30.86;32.94;101904.84;5082332;28;45306;-59
2022/08/09 10:51:22;;;;;;;;;7.75;7.75;;;;;31.54;33.12;101902.75;5073062;28;45350;-59
2022/08/09 10:54:09;;;;;;;;;7.50;7.50;;;;;32.24;32.60;101899.53;5081932;27;45509;-59
2022/08/09 10:56:37;;;;;;;;;8.00;8.00;;;;;32.91;32.17;101897.16;5081910;27;45399;-59
2022/08/09 10:59:21;;;;;;;;;7.75;7.75;;;;;33.60;31.78;101894.44;5081875;28;45538;-59
2022/08/09 11:01:47;;;;;;;;;7.25;7.25;;;;;34.15;31.39;101894.63;5081377;27;45568;-60
2022/08/09 11:04:12;;;;;;;;;7.00;7.00;;;;;34.75;31.32;101897.94;5061617;28;46122;-60
2022/08/09 11:06:42;;;;;;;;;7.50;6.00;;;;;35.35;30.36;101899.19;5061149;28;45313;-61
2022/08/09 11:09:10;;;;;;;;;7.75;6.50;;;;;35.98;30.45;101889.16;5068537;28;45232;-60
2022/08/09 11:11:53;;;;;;;;;7.50;7.50;;;;;36.63;30.31;101882.25;5079075;28;45472;-61
2022/08/09 11:14:40;;;;;;;;;5.75;5.75;;;;;37.19;29.27;101888.84;5061408;28;45987;-61
2022/08/09 11:17:14;;;;;;;;;8.00;8.00;;;;;37.71;28.50;101893.13;5061115;28;45420;-61
2022/08/09 11:19:49;;;;;;;;;7.50;7.25;;;;;38.16;28.63;101893.53;5061488;28;45415;-61
2022/08/09 11:22:14;;;;;;;;;7.25;6.25;;;;;38.57;27.73;101895.28;5061191;28;45518;-61
2022/08/09 11:25:09;;;;;;;;;10.00;8.25;;;;;39.00;27.54;101892.13;5061172;28;45356;-61
2022/08/09 11:27:42;;;;;;;;;6.00;6.00;;;;;39.42;27.24;101888.03;5061248;28;45307;-61